Time;durP1;ratioP1;P1;durP2;ratioP2;P2;SDS_P1;SDS_P2;PMS_P1;PMS_P2;Temp;Humidity;BMP_temperature;BMP_pressure;BME280_temperature;BME280_humidity;BME280_pressure;Samples;Min_cycle;Max_cycle;Signal;HPM_P1;HPM_P2
2021/01/15 00:01:17;;;;;;;17.65;16.05;;;8.00;80.10;;;;;;5044472;28;20559;-72
2021/01/15 00:03:43;;;;;;;16.67;15.18;;;8.00;80.10;;;;;;5044733;28;20068;-72
2021/01/15 00:06:09;;;;;;;16.30;14.73;;;8.00;80.10;;;;;;5026524;28;20502;-72
2021/01/15 00:08:38;;;;;;;15.32;13.93;;;8.00;80.10;;;;;;5044555;28;20091;-73
2021/01/15 00:11:14;;;;;;;15.38;13.98;;;8.00;80.20;;;;;;5042895;28;20036;-72
2021/01/15 00:13:40;;;;;;;15.38;13.98;;;7.90;80.00;;;;;;5043010;28;20041;-73
2021/01/15 00:16:06;;;;;;;15.38;14.05;;;7.90;80.00;;;;;;5026506;28;20039;-72
2021/01/15 00:18:32;;;;;;;14.82;13.30;;;7.90;80.00;;;;;;5046745;28;20116;-71
2021/01/15 00:20:58;;;;;;;13.98;12.68;;;7.90;80.00;;;;;;5059318;28;20035;-72
2021/01/15 00:23:24;;;;;;;15.23;13.85;;;7.90;80.10;;;;;;5055000;28;20113;-72
2021/01/15 00:25:50;;;;;;;15.48;14.07;;;7.90;80.00;;;;;;5053369;28;20024;-71
2021/01/15 00:28:16;;;;;;;13.95;12.65;;;7.90;80.10;;;;;;5059447;28;20036;-72
2021/01/15 00:30:42;;;;;;;13.43;11.77;;;7.90;80.10;;;;;;5057304;28;20059;-72
2021/01/15 00:33:08;;;;;;;14.40;13.10;;;7.80;79.90;;;;;;5067658;28;20024;-70
2021/01/15 00:35:34;;;;;;;14.63;12.60;;;7.80;79.90;;;;;;5051810;28;20409;-70
2021/01/15 00:38:00;;;;;;;14.43;12.93;;;7.80;79.90;;;;;;5046935;28;20037;-71
2021/01/15 00:40:26;;;;;;;13.52;12.32;;;7.80;79.90;;;;;;5048009;28;20360;-71
2021/01/15 00:42:52;;;;;;;14.30;13.00;;;7.80;79.90;;;;;;5048152;28;20079;-71
2021/01/15 00:45:18;;;;;;;13.23;12.02;;;7.80;79.90;;;;;;5048299;28;20057;-71
2021/01/15 00:47:45;;;;;;;13.63;12.38;;;7.70;79.80;;;;;;5046823;28;20044;-70
2021/01/15 00:50:13;;;;;;;14.95;13.45;;;7.70;79.80;;;;;;5047800;28;20071;-71
2021/01/15 00:52:40;;;;;;;13.77;12.48;;;7.60;79.60;;;;;;5045753;28;20033;-71
2021/01/15 00:55:07;;;;;;;13.38;12.13;;;7.60;79.70;;;;;;5055931;28;20082;-70
2021/01/15 00:57:37;;;;;;;12.68;11.48;;;7.60;79.70;;;;;;5067389;28;20551;-71
2021/01/15 01:00:06;;;;;;;15.02;13.23;;;7.60;79.80;;;;;;5052379;28;20029;-71
2021/01/15 01:02:50;;;;;;;13.52;12.38;;;7.50;79.70;;;;;;5046411;28;20400;-70
2021/01/15 01:05:20;;;;;;;15.02;13.63;;;7.50;79.70;;;;;;5046016;28;20029;-71
2021/01/15 01:07:47;;;;;;;14.07;12.75;;;7.50;79.70;;;;;;5057969;28;20124;-72
2021/01/15 01:10:14;;;;;;;13.98;12.68;;;7.40;79.60;;;;;;5048544;28;20036;-71
2021/01/15 01:12:44;;;;;;;14.52;13.13;;;7.40;79.60;;;;;;5047829;28;20127;-72
2021/01/15 01:15:11;;;;;;;14.40;13.00;;;7.40;79.70;;;;;;5046282;28;20072;-71
2021/01/15 01:17:38;;;;;;;13.70;12.43;;;7.30;79.50;;;;;;5047780;28;20043;-71
2021/01/15 01:20:06;;;;;;;14.57;13.27;;;7.40;79.70;;;;;;5047287;28;20114;-71
2021/01/15 01:22:32;;;;;;;14.48;13.00;;;7.30;79.60;;;;;;5046538;28;20693;-72
2021/01/15 01:24:59;;;;;;;14.57;13.27;;;7.30;79.60;;;;;;5046828;28;20436;-72
2021/01/15 01:27:25;;;;;;;14.68;13.27;;;7.30;79.60;;;;;;5046643;28;20032;-71
2021/01/15 01:29:51;;;;;;;16.00;14.50;;;7.30;79.60;;;;;;5059633;28;20020;-72
2021/01/15 01:32:17;;;;;;;15.27;13.82;;;7.30;79.70;;;;;;5067799;28;20352;-72
2021/01/15 01:34:44;;;;;;;15.82;14.23;;;7.30;79.70;;;;;;5065615;28;20113;-71
2021/01/15 01:37:10;;;;;;;15.82;14.27;;;7.30;79.70;;;;;;5066722;28;20120;-71
2021/01/15 01:39:36;;;;;;;15.55;14.05;;;7.20;79.50;;;;;;5066721;28;20145;-72
2021/01/15 01:42:02;;;;;;;16.70;15.10;;;7.20;79.50;;;;;;5048170;28;20043;-73
2021/01/15 01:44:28;;;;;;;16.45;14.88;;;7.20;79.50;;;;;;5064894;28;20025;-72
2021/01/15 01:46:54;;;;;;;16.52;14.90;;;7.30;79.70;;;;;;5065997;28;20090;-73
2021/01/15 01:49:21;;;;;;;17.42;15.75;;;7.20;79.60;;;;;;5066969;28;20025;-73
2021/01/15 01:51:49;;;;;;;21.42;16.08;;;7.20;79.60;;;;;;5065426;28;20040;-72
2021/01/15 01:54:17;;;;;;;16.30;14.60;;;7.20;79.70;;;;;;5063505;28;20037;-72
2021/01/15 01:56:43;;;;;;;16.35;14.85;;;7.20;79.70;;;;;;5045672;28;20041;-73
2021/01/15 01:59:12;;;;;;;18.05;16.35;;;7.20;79.70;;;;;;5053556;28;20126;-72
2021/01/15 02:01:39;;;;;;;16.95;15.25;;;7.10;79.60;;;;;;5065515;28;20074;-72
2021/01/15 02:04:05;;;;;;;16.25;14.65;;;7.10;79.50;;;;;;5064610;28;20114;-72
2021/01/15 02:06:39;;;;;;;17.95;16.25;;;7.10;79.50;;;;;;5066882;28;20387;-72
2021/01/15 02:09:06;;;;;;;16.02;14.48;;;7.20;79.70;;;;;;5066206;28;20024;-73
2021/01/15 02:11:40;;;;;;;21.73;15.70;;;7.10;79.50;;;;;;5065786;28;20495;-73
2021/01/15 02:14:51;;;;;;;18.17;16.17;;;7.10;79.50;;;;;;5062707;28;20244;-72
2021/01/15 02:17:20;;;;;;;18.75;16.77;;;7.10;79.60;;;;;;5016860;28;20044;-72
2021/01/15 02:19:54;;;;;;;19.08;17.17;;;7.10;79.50;;;;;;5066560;28;20028;-72
2021/01/15 02:22:41;;;;;;;20.00;17.30;;;7.10;79.50;;;;;;5065870;28;20376;-73
2021/01/15 02:25:32;;;;;;;18.00;16.17;;;7.10;79.50;;;;;;5053163;28;20036;-72
2021/01/15 02:28:33;;;;;;;19.45;17.55;;;7.10;79.50;;;;;;5046250;28;20036;-72
2021/01/15 02:31:24;;;;;;;18.70;16.80;;;7.10;79.50;;;;;;5051887;28;20131;-73
2021/01/15 02:34:21;;;;;;;19.58;17.67;;;7.00;79.30;;;;;;5056322;28;20048;-72
2021/01/15 02:37:03;;;;;;;18.38;16.48;;;7.00;79.30;;;;;;5046016;28;20045;-73
2021/01/15 02:40:08;;;;;;;19.30;17.45;;;7.00;79.30;;;;;;5049345;28;20115;-72
2021/01/15 02:42:38;;;;;;;23.58;18.40;;;7.00;79.30;;;;;;5033305;28;20329;-72
2021/01/15 02:45:10;;;;;;;19.17;17.23;;;7.00;79.30;;;;;;5067327;28;20036;-72
2021/01/15 02:47:53;;;;;;;20.00;17.77;;;7.00;79.30;;;;;;5055138;28;20511;-73
2021/01/15 02:50:25;;;;;;;20.55;17.85;;;7.00;79.40;;;;;;5050260;28;20037;-73
2021/01/15 02:52:53;;;;;;;19.98;17.65;;;7.00;79.40;;;;;;5049302;28;20036;-71
2021/01/15 02:55:19;;;;;;;19.63;17.65;;;6.90;79.20;;;;;;5061509;28;20029;-73
2021/01/15 02:57:45;;;;;;;20.75;18.83;;;7.00;79.40;;;;;;5052172;28;20349;-73
2021/01/15 03:00:15;;;;;;;20.98;18.90;;;7.00;79.50;;;;;;5070204;28;20031;-72
2021/01/15 03:03:13;;;;;;;21.15;18.95;;;6.90;79.30;;;;;;5070316;28;20158;-72
2021/01/15 03:05:45;;;;;;;20.05;18.00;;;6.90;79.30;;;;;;5070321;28;20025;-72
2021/01/15 03:08:14;;;;;;;21.38;19.13;;;6.90;79.30;;;;;;5070050;28;20493;-72
2021/01/15 03:10:41;;;;;;;19.38;17.40;;;6.90;79.30;;;;;;5070017;28;20028;-73
2021/01/15 03:13:08;;;;;;;21.77;19.67;;;6.90;79.30;;;;;;5070586;28;20032;-72
2021/01/15 03:15:36;;;;;;;19.95;17.95;;;6.90;79.30;;;;;;5068685;28;20127;-73
2021/01/15 03:18:04;;;;;;;22.40;18.52;;;6.90;79.30;;;;;;5068928;28;20105;-72
2021/01/15 03:20:30;;;;;;;20.55;18.45;;;6.90;79.30;;;;;;5069859;28;20024;-73
2021/01/15 03:22:57;;;;;;;21.45;19.23;;;6.90;79.30;;;;;;5070176;28;20110;-72
2021/01/15 03:25:23;;;;;;;21.08;18.98;;;6.90;79.30;;;;;;5069619;28;20467;-72
2021/01/15 03:27:51;;;;;;;20.52;18.48;;;6.90;79.30;;;;;;5069759;28;20036;-72
2021/01/15 03:30:17;;;;;;;24.67;19.52;;;6.90;79.30;;;;;;5069579;28;20075;-72
2021/01/15 03:32:45;;;;;;;21.15;19.08;;;6.80;79.10;;;;;;5068393;28;20463;-72
2021/01/15 03:35:33;;;;;;;20.13;18.20;;;6.80;79.10;;;;;;5068441;28;20320;-72
2021/01/15 03:38:09;;;;;;;22.98;20.67;;;6.90;79.30;;;;;;5067552;28;20468;-72
2021/01/15 03:40:38;;;;;;;21.45;19.30;;;6.80;79.10;;;;;;5068320;28;20089;-72
2021/01/15 03:43:16;;;;;;;22.25;20.00;;;6.80;79.10;;;;;;5069586;28;20488;-72
2021/01/15 03:45:44;;;;;;;20.30;18.00;;;6.80;79.20;;;;;;5068153;28;20034;-73
2021/01/15 03:48:11;;;;;;;21.45;19.35;;;6.80;79.20;;;;;;5068506;28;20391;-73
2021/01/15 03:50:38;;;;;;;20.58;18.52;;;6.80;79.20;;;;;;5068098;28;20028;-73
2021/01/15 03:53:04;;;;;;;22.60;20.10;;;6.70;79.00;;;;;;5069570;28;20111;-72
2021/01/15 03:55:31;;;;;;;21.65;19.55;;;6.70;79.10;;;;;;5056096;28;20076;-72
2021/01/15 03:57:57;;;;;;;21.80;19.52;;;6.70;79.10;;;;;;5054194;28;20047;-72
2021/01/15 04:00:23;;;;;;;22.25;19.92;;;6.70;79.10;;;;;;5060158;28;20025;-72
2021/01/15 04:02:49;;;;;;;21.98;19.75;;;6.70;79.10;;;;;;5064891;28;20033;-72
2021/01/15 04:05:15;;;;;;;22.40;20.10;;;6.60;78.90;;;;;;5048962;28;20155;-73
2021/01/15 04:07:41;;;;;;;21.02;18.75;;;6.60;78.90;;;;;;5048163;28;20277;-71
2021/01/15 04:10:09;;;;;;;20.85;18.70;;;6.60;78.90;;;;;;5048975;28;20201;-72
2021/01/15 04:12:40;;;;;;;22.42;19.92;;;6.60;79.00;;;;;;5049301;28;20040;-72
2021/01/15 04:15:08;;;;;;;22.20;19.83;;;6.60;79.00;;;;;;5047719;28;20029;-71
2021/01/15 04:17:34;;;;;;;24.23;21.83;;;6.50;78.80;;;;;;5049388;28;20068;-72
2021/01/15 04:20:01;;;;;;;22.15;19.83;;;6.50;78.80;;;;;;5048954;28;20051;-72
2021/01/15 04:22:38;;;;;;;22.10;19.77;;;6.50;78.90;;;;;;5049256;28;20275;-72
2021/01/15 04:25:06;;;;;;;21.15;19.08;;;6.50;78.90;;;;;;5030816;28;20029;-72
2021/01/15 04:27:33;;;;;;;21.13;19.02;;;6.50;78.90;;;;;;5058550;28;20040;-72
2021/01/15 04:30:04;;;;;;;22.50;20.00;;;6.40;78.70;;;;;;5063842;28;20051;-73
2021/01/15 04:32:30;;;;;;;22.02;19.83;;;6.40;78.80;;;;;;5064461;28;20029;-72
2021/01/15 04:34:56;;;;;;;21.10;19.00;;;6.40;78.80;;;;;;5051692;28;20025;-72
2021/01/15 04:37:22;;;;;;;22.70;20.40;;;6.40;78.80;;;;;;5064412;28;20680;-72
2021/01/15 04:39:48;;;;;;;23.23;20.75;;;6.30;78.70;;;;;;5067817;28;20032;-72
2021/01/15 04:42:15;;;;;;;20.90;18.85;;;6.40;78.90;;;;;;5063840;28;20060;-72
2021/01/15 04:44:42;;;;;;;22.08;19.80;;;6.30;78.70;;;;;;5031213;28;20453;-73
2021/01/15 04:47:09;;;;;;;22.88;20.40;;;6.30;78.80;;;;;;5048608;28;20047;-73
2021/01/15 04:49:36;;;;;;;23.73;19.27;;;6.20;78.60;;;;;;5047623;28;20453;-73
2021/01/15 04:52:03;;;;;;;22.77;20.00;;;6.20;78.60;;;;;;5056159;28;20102;-71
2021/01/15 04:54:43;;;;;;;22.98;20.40;;;6.20;78.70;;;;;;5066056;28;20079;-72
2021/01/15 04:57:11;;;;;;;24.38;21.50;;;6.20;78.70;;;;;;5068819;28;20047;-73
2021/01/15 04:59:47;;;;;;;22.67;20.25;;;6.10;78.50;;;;;;5060076;28;20025;-73
2021/01/15 05:02:18;;;;;;;24.98;20.25;;;6.10;78.50;;;;;;5057256;28;20048;-72
2021/01/15 05:04:44;;;;;;;22.27;19.90;;;6.00;78.40;;;;;;5059428;28;20466;-73
2021/01/15 05:07:12;;;;;;;22.48;20.10;;;6.00;78.50;;;;;;5048627;28;20456;-72
2021/01/15 05:09:44;;;;;;;20.92;18.73;;;6.00;78.50;;;;;;5034251;28;20021;-73
2021/01/15 05:12:20;;;;;;;22.65;19.92;;;6.00;78.50;;;;;;5057269;28;20391;-72
2021/01/15 05:14:48;;;;;;;21.77;19.60;;;5.90;78.30;;;;;;5048763;28;20025;-72
2021/01/15 05:17:16;;;;;;;23.05;20.65;;;5.90;78.30;;;;;;5047161;28;20098;-73
2021/01/15 05:19:43;;;;;;;22.95;19.92;;;5.90;78.40;;;;;;5052386;28;20063;-72
2021/01/15 05:22:13;;;;;;;23.92;21.30;;;5.80;78.20;;;;;;5052554;28;20040;-73
2021/01/15 05:24:40;;;;;;;22.00;19.33;;;5.80;78.20;;;;;;5050155;28;20075;-73
2021/01/15 05:30:15;;;;;;;22.00;19.48;;;5.80;78.90;;;;;;5051029;28;20044;-72
2021/01/15 05:32:41;;;;;;;24.92;20.60;;;5.70;78.20;;;;;;5052001;28;20032;-72
2021/01/15 05:35:08;;;;;;;22.17;19.83;;;5.70;78.20;;;;;;5067633;28;20514;-72
2021/01/15 05:37:34;;;;;;;22.17;19.88;;;5.60;78.00;;;;;;5050701;28;20376;-72
2021/01/15 05:40:00;;;;;;;21.58;18.92;;;5.60;78.00;;;;;;5052014;28;20029;-72
2021/01/15 05:42:26;;;;;;;23.33;20.33;;;5.60;78.10;;;;;;5067030;28;20116;-72
2021/01/15 05:45:11;;;;;;;21.55;18.77;;;5.50;78.00;;;;;;5052091;28;20120;-72
2021/01/15 05:47:47;;;;;;;20.75;18.58;;;5.50;78.00;;;;;;5055315;28;20052;-72
2021/01/15 05:50:14;;;;;;;22.45;20.08;;;5.50;78.00;;;;;;5066819;28;20995;-72
2021/01/15 05:52:54;;;;;;;20.48;18.33;;;5.40;77.80;;;;;;5065944;28;20036;-72
2021/01/15 05:55:21;;;;;;;22.50;19.13;;;5.30;77.70;;;;;;5066559;28;20067;-72
2021/01/15 05:57:51;;;;;;;22.35;20.08;;;5.40;77.90;;;;;;5065392;28;20282;-73
2021/01/15 06:00:25;;;;;;;21.98;19.48;;;5.30;77.70;;;;;;5064890;28;20035;-73
2021/01/15 06:02:53;;;;;;;21.92;19.63;;;5.30;77.80;;;;;;5064748;28;20064;-74
2021/01/15 06:05:22;;;;;;;23.50;19.70;;;5.30;77.80;;;;;;5066275;28;20413;-71
2021/01/15 06:07:58;;;;;;;23.30;20.80;;;5.20;77.70;;;;;;5062603;28;20040;-74
2021/01/15 06:10:25;;;;;;;23.92;19.35;;;5.20;77.70;;;;;;5045949;28;20506;-74
2021/01/15 06:12:52;;;;;;;23.95;19.55;;;5.20;77.70;;;;;;5044812;28;20037;-73
2021/01/15 06:15:18;;;;;;;22.95;19.77;;;5.20;77.70;;;;;;5045075;28;20504;-74
2021/01/15 06:17:51;;;;;;;24.83;20.65;;;5.10;77.60;;;;;;5044772;28;20107;-78
2021/01/15 06:20:21;;;;;;;24.00;20.65;;;5.10;77.60;;;;;;5045269;28;20395;-74
2021/01/15 06:22:49;;;;;;;23.35;20.50;;;5.10;77.70;;;;;;5046375;28;20059;-73
2021/01/15 06:25:33;;;;;;;24.58;19.80;;;5.10;77.70;;;;;;5044499;28;20029;-74
2021/01/15 06:28:04;;;;;;;23.75;21.25;;;5.10;77.70;;;;;;5044892;28;20179;-73
2021/01/15 06:30:37;;;;;;;21.17;18.90;;;5.10;77.60;;;;;;5046006;28;20338;-74
2021/01/15 06:33:11;;;;;;;21.67;19.40;;;5.10;77.50;;;;;;5046396;28;20025;-72
2021/01/15 06:35:47;;;;;;;22.83;20.23;;;5.10;77.50;;;;;;5044853;28;20036;-73
2021/01/15 06:38:26;;;;;;;23.45;19.48;;;5.10;77.50;;;;;;5044465;28;20036;-74
2021/01/15 06:40:52;;;;;;;24.65;20.67;;;5.00;77.40;;;;;;5044777;28;20036;-72
2021/01/15 06:43:18;;;;;;;22.77;20.35;;;5.10;77.60;;;;;;5046934;28;20067;-72
2021/01/15 06:45:54;;;;;;;22.20;19.88;;;5.00;77.50;;;;;;5063650;28;20028;-73
2021/01/15 06:48:24;;;;;;;23.17;19.67;;;5.00;77.50;;;;;;5054248;28;20165;-73
2021/01/15 06:50:53;;;;;;;22.05;19.70;;;5.00;77.60;;;;;;5059040;28;20629;-73
2021/01/15 06:53:32;;;;;;;22.30;19.98;;;4.90;77.40;;;;;;5048337;28;20025;-73
2021/01/15 06:56:04;;;;;;;23.33;20.38;;;4.90;77.50;;;;;;5056703;28;20032;-73
2021/01/15 06:58:40;;;;;;;25.08;19.23;;;4.90;77.50;;;;;;5061920;28;20067;-74
2021/01/15 07:01:21;;;;;;;20.25;18.20;;;4.90;77.50;;;;;;5063806;28;20025;-74
2021/01/15 07:04:21;;;;;;;21.70;19.13;;;4.80;77.30;;;;;;5063460;28;20442;-74
2021/01/15 07:07:12;;;;;;;22.17;19.05;;;4.80;77.30;;;;;;5063366;28;20438;-73
2021/01/15 07:09:43;;;;;;;20.55;18.38;;;4.80;77.30;;;;;;5043240;28;20025;-72
2021/01/15 07:12:11;;;;;;;22.23;18.08;;;4.70;77.20;;;;;;5043957;28;20040;-72
2021/01/15 07:15:10;;;;;;;21.67;19.38;;;4.70;77.20;;;;;;5045270;28;20032;-72
2021/01/15 07:17:38;;;;;;;20.48;18.38;;;4.60;77.20;;;;;;5044229;28;20499;-71
2021/01/15 07:20:11;;;;;;;23.23;19.73;;;4.60;77.10;;;;;;5045572;28;20036;-73
2021/01/15 07:23:02;;;;;;;21.05;18.83;;;4.60;77.20;;;;;;5042855;28;20044;-73
2021/01/15 07:25:28;;;;;;;24.25;20.42;;;4.60;77.30;;;;;;5045065;28;20120;-72
2021/01/15 07:27:54;;;;;;;21.63;18.55;;;4.50;77.10;;;;;;5027471;28;20531;-72
2021/01/15 07:30:28;;;;;;;24.27;20.25;;;4.50;77.20;;;;;;5044936;28;20052;-72
2021/01/15 07:32:56;;;;;;;22.73;18.75;;;4.50;77.20;;;;;;5044887;28;20060;-73
2021/01/15 07:35:27;;;;;;;22.23;19.85;;;4.50;77.30;;;;;;5045176;28;20244;-72
2021/01/15 07:38:09;;;;;;;23.67;20.48;;;4.50;77.30;;;;;;5042953;28;20177;-72
2021/01/15 07:40:36;;;;;;;20.38;17.92;;;4.50;77.30;;;;;;5044067;28;20051;-73
2021/01/15 07:43:03;;;;;;;24.00;21.55;;;4.50;77.30;;;;;;5046313;28;20128;-73
2021/01/15 07:45:32;;;;;;;25.98;20.38;;;4.50;77.30;;;;;;5046779;28;20056;-72
2021/01/15 07:48:04;;;;;;;28.30;21.80;;;4.50;77.30;;;;;;5060076;28;20488;-73
2021/01/15 07:50:33;;;;;;;24.90;20.02;;;4.50;77.40;;;;;;5045009;28;20090;-73
2021/01/15 07:53:16;;;;;;;25.85;21.25;;;4.50;77.40;;;;;;5043236;28;20438;-73
2021/01/15 07:55:49;;;;;;;24.10;20.45;;;4.50;77.40;;;;;;5026125;28;20051;-72
2021/01/15 07:58:18;;;;;;;26.58;21.83;;;4.50;77.40;;;;;;5042921;28;20598;-74
2021/01/15 08:00:45;;;;;;;23.23;20.52;;;4.50;77.30;;;;;;5043681;28;20033;-73
2021/01/15 08:03:12;;;;;;;23.92;21.27;;;4.50;77.30;;;;;;5043223;28;20360;-72
2021/01/15 08:05:38;;;;;;;28.10;21.00;;;4.50;77.30;;;;;;5043059;28;20025;-73
2021/01/15 08:08:13;;;;;;;25.50;21.65;;;4.50;77.30;;;;;;5042860;28;20056;-74
2021/01/15 08:10:49;;;;;;;26.85;21.02;;;4.60;77.50;;;;;;5043082;28;20114;-74
2021/01/15 08:13:23;;;;;;;24.85;22.17;;;4.50;77.30;;;;;;5042654;28;20058;-73
2021/01/15 08:15:50;;;;;;;27.17;21.42;;;4.50;77.20;;;;;;5043106;28;20084;-74
2021/01/15 08:18:16;;;;;;;29.23;23.70;;;4.60;77.40;;;;;;5026617;28;20419;-72
2021/01/15 08:20:53;;;;;;;25.92;21.42;;;4.60;77.40;;;;;;5043688;28;20057;-72
2021/01/15 08:23:21;;;;;;;24.30;21.73;;;4.60;77.80;;;;;;5044502;28;20079;-73
2021/01/15 08:25:51;;;;;;;23.58;20.90;;;4.60;77.30;;;;;;5025756;28;20124;-73
2021/01/15 08:28:17;;;;;;;27.35;22.30;;;4.60;77.30;;;;;;5042770;28;20044;-73
2021/01/15 08:31:08;;;;;;;26.90;22.60;;;4.60;77.30;;;;;;5042702;28;20044;-73
2021/01/15 08:33:35;;;;;;;26.48;22.33;;;4.60;77.30;;;;;;5042756;28;20610;-72
2021/01/15 08:36:03;;;;;;;26.38;23.52;;;4.60;77.30;;;;;;5042573;28;20025;-72
2021/01/15 08:38:34;;;;;;;25.42;22.52;;;4.60;77.30;;;;;;5044037;28;20507;-72
2021/01/15 08:41:01;;;;;;;26.92;23.85;;;4.70;77.50;;;;;;5044067;28;20029;-72
2021/01/15 08:43:30;;;;;;;35.40;24.60;;;4.70;77.50;;;;;;5042529;28;20028;-72
2021/01/15 08:45:56;;;;;;;26.05;23.33;;;4.70;77.40;;;;;;5026016;28;20044;-72
2021/01/15 08:48:23;;;;;;;26.65;23.45;;;4.70;77.40;;;;;;5032857;28;20039;-72
2021/01/15 08:50:49;;;;;;;31.90;23.65;;;4.70;77.40;;;;;;5063388;28;20032;-73
2021/01/15 08:53:22;;;;;;;28.85;23.92;;;4.70;77.40;;;;;;5065481;28;20125;-71
2021/01/15 08:55:53;;;;;;;28.20;22.85;;;4.70;77.30;;;;;;5051805;28;20033;-73
2021/01/15 08:58:20;;;;;;;27.13;23.08;;;4.70;77.30;;;;;;5052888;28;20032;-72
2021/01/15 09:00:46;;;;;;;29.50;22.58;;;4.80;77.50;;;;;;5066615;28;20175;-73
2021/01/15 09:03:16;;;;;;;27.85;22.92;;;4.80;77.50;;;;;;5067879;28;20119;-72
2021/01/15 09:05:42;;;;;;;26.75;22.70;;;4.80;77.40;;;;;;5049517;28;20032;-74
2021/01/15 09:08:13;;;;;;;30.20;22.80;;;4.80;77.40;;;;;;5049677;28;20066;-74
2021/01/15 09:10:46;;;;;;;27.63;23.98;;;4.90;77.50;;;;;;5049298;28;20231;-73
2021/01/15 09:13:12;;;;;;;28.98;23.88;;;4.90;77.50;;;;;;5066227;28;20463;-72
2021/01/15 09:15:38;;;;;;;26.42;21.67;;;4.90;77.50;;;;;;5050018;28;20431;-72
2021/01/15 09:18:06;;;;;;;27.27;21.73;;;5.00;77.60;;;;;;5066159;28;20041;-73
2021/01/15 09:20:32;;;;;;;24.45;20.92;;;5.00;77.60;;;;;;5067585;28;20028;-72
2021/01/15 09:22:58;;;;;;;26.35;21.02;;;5.00;77.50;;;;;;5066127;28;20048;-73
2021/01/15 09:25:25;;;;;;;24.40;19.95;;;5.10;77.60;;;;;;5066686;28;20408;-73
2021/01/15 09:27:51;;;;;;;25.00;22.10;;;5.10;77.50;;;;;;5064378;28;20068;-73
2021/01/15 09:30:19;;;;;;;25.27;21.15;;;5.10;77.50;;;;;;5047238;28;20464;-73
2021/01/15 09:32:46;;;;;;;26.05;21.88;;;5.10;77.50;;;;;;5045737;28;20048;-73
2021/01/15 09:35:13;;;;;;;25.58;21.25;;;5.10;77.40;;;;;;5047458;28;20407;-74
2021/01/15 09:37:40;;;;;;;24.50;21.83;;;5.10;77.40;;;;;;5045420;28;20052;-73
2021/01/15 09:40:07;;;;;;;23.25;20.48;;;5.10;77.40;;;;;;5045052;28;20073;-74
2021/01/15 09:42:33;;;;;;;26.85;21.90;;;5.20;77.50;;;;;;5046437;28;20902;-72
2021/01/15 09:44:59;;;;;;;25.98;21.15;;;5.20;77.50;;;;;;5045785;28;20170;-72
2021/01/15 09:47:28;;;;;;;23.30;20.23;;;5.20;77.50;;;;;;5045395;28;20053;-73
2021/01/15 09:49:54;;;;;;;26.08;20.13;;;5.20;77.40;;;;;;5045063;28;20040;-71
2021/01/15 09:52:20;;;;;;;22.80;20.30;;;5.30;77.60;;;;;;5055252;28;20025;-72
2021/01/15 09:54:46;;;;;;;24.75;20.50;;;5.20;77.40;;;;;;5054695;28;20036;-72
2021/01/15 09:57:12;;;;;;;23.25;20.35;;;5.30;77.50;;;;;;5066175;28;20051;-73
2021/01/15 09:59:38;;;;;;;24.83;19.52;;;5.30;77.50;;;;;;5047701;28;20373;-72
2021/01/15 10:02:03;;;;;;;21.70;19.20;;;5.30;77.50;;;;;;5046474;28;20088;-72
2021/01/15 10:04:30;;;;;;;22.58;20.13;;;5.30;77.90;;;;;;5045124;28;20344;-73
2021/01/15 10:06:55;;;;;;;21.40;19.05;;;5.40;77.60;;;;;;5045140;28;20033;-73
2021/01/15 10:09:21;;;;;;;22.33;19.63;;;5.40;77.50;;;;;;5039538;28;20029;-72
2021/01/15 10:11:48;;;;;;;20.52;18.33;;;5.40;77.50;;;;;;5061478;28;20036;-73
2021/01/15 10:14:16;;;;;;;21.88;19.65;;;5.50;77.60;;;;;;5051676;28;20120;-73
2021/01/15 10:16:46;;;;;;;21.77;19.48;;;5.50;77.60;;;;;;5046052;28;20106;-72
2021/01/15 10:19:12;;;;;;;22.85;20.38;;;5.50;77.50;;;;;;5056117;28;20129;-73
2021/01/15 10:21:41;;;;;;;22.35;18.92;;;5.60;77.70;;;;;;5052795;28;20052;-73
2021/01/15 10:24:08;;;;;;;22.90;19.85;;;5.60;77.60;;;;;;5056189;28;20133;-72
2021/01/15 10:26:35;;;;;;;22.88;19.27;;;5.60;77.60;;;;;;5038561;28;20029;-73
2021/01/15 10:29:20;;;;;;;23.70;19.73;;;5.60;77.50;;;;;;5057007;28;20118;-73
2021/01/15 10:31:52;;;;;;;20.52;17.58;;;5.70;77.60;;;;;;5064495;28;20044;-74
2021/01/15 10:34:18;;;;;;;18.77;16.88;;;5.80;77.70;;;;;;5065952;28;20459;-74
2021/01/15 10:36:45;;;;;;;21.42;18.77;;;5.80;77.70;;;;;;5047771;28;20028;-73
2021/01/15 10:39:12;;;;;;;21.10;18.90;;;5.80;77.80;;;;;;5063998;28;20040;-74
2021/01/15 10:41:40;;;;;;;22.83;17.65;;;5.90;77.90;;;;;;5065755;28;20020;-74
2021/01/15 10:44:08;;;;;;;22.23;19.15;;;6.00;78.00;;;;;;5064705;28;20119;-73
2021/01/15 10:46:41;;;;;;;21.02;18.77;;;6.00;77.90;;;;;;5064925;28;20071;-73
2021/01/15 10:49:09;;;;;;;19.90;17.85;;;6.00;77.80;;;;;;5064783;28;20150;-74
2021/01/15 10:51:39;;;;;;;23.10;18.27;;;6.10;77.90;;;;;;5064641;28;20032;-74
2021/01/15 10:54:05;;;;;;;26.15;18.58;;;6.20;78.00;;;;;;5063886;28;20111;-73
2021/01/15 10:56:39;;;;;;;22.08;19.73;;;6.20;77.90;;;;;;5043837;28;20036;-74
2021/01/15 10:59:06;;;;;;;21.20;19.00;;;6.20;77.80;;;;;;5056141;28;20040;-71
2021/01/15 11:01:43;;;;;;;21.27;19.17;;;6.30;77.90;;;;;;5063984;28;20520;-72
2021/01/15 11:04:11;;;;;;;21.80;19.42;;;6.30;77.80;;;;;;5064027;28;20032;-72
2021/01/15 11:06:45;;;;;;;29.33;18.45;;;6.30;77.80;;;;;;5064736;28;20056;-72
2021/01/15 11:09:12;;;;;;;;;;;6.40;77.90;;;;;;5064004;28;20295;-73
2021/01/15 11:11:45;;;;;;;20.85;17.65;;;6.40;77.90;;;;;;5049653;28;20003;-71
2021/01/15 11:14:13;;;;;;;22.70;19.25;;;6.40;77.70;;;;;;5055730;28;20070;-72
2021/01/15 11:16:39;;;;;;;20.85;18.65;;;6.40;77.60;;;;;;5061898;28;20104;-73
2021/01/15 11:19:05;;;;;;;19.85;17.75;;;6.50;77.80;;;;;;5063187;28;20097;-72
2021/01/15 11:21:31;;;;;;;20.48;18.48;;;6.50;77.70;;;;;;5063729;28;20028;-72
2021/01/15 11:23:57;;;;;;;20.65;18.45;;;6.60;77.80;;;;;;5057002;28;20114;-72
2021/01/15 11:26:24;;;;;;;23.27;19.98;;;6.60;77.80;;;;;;5026561;28;20242;-73
2021/01/15 11:28:55;;;;;;;24.60;20.08;;;6.60;77.70;;;;;;5044753;28;20441;-73
2021/01/15 11:31:22;;;;;;;21.23;18.80;;;6.60;77.60;;;;;;5045173;28;20469;-73
2021/01/15 11:33:48;;;;;;;25.30;22.45;;;6.70;77.70;;;;;;5045177;28;20029;-73
2021/01/15 11:36:14;;;;;;;34.20;30.88;;;6.70;77.70;;;;;;5042871;28;20032;-73
2021/01/15 11:38:41;;;;;;;33.28;29.80;;;6.80;78.00;;;;;;5042910;28;20044;-71
2021/01/15 11:41:08;;;;;;;30.90;27.65;;;6.80;78.20;;;;;;5042967;28;20028;-70
2021/01/15 11:43:35;;;;;;;32.67;27.83;;;6.90;78.40;;;;;;5050739;28;20032;-71
2021/01/15 11:46:03;;;;;;;31.05;25.73;;;6.90;78.30;;;;;;5062443;28;20101;-71
2021/01/15 11:48:30;;;;;;;27.38;24.52;;;7.00;78.50;;;;;;5046137;28;20056;-71
2021/01/15 11:50:56;;;;;;;28.95;25.98;;;7.00;78.50;;;;;;5048087;28;20367;-73
2021/01/15 11:53:23;;;;;;;25.17;22.67;;;7.10;78.60;;;;;;5062814;28;20033;-73
2021/01/15 11:55:50;;;;;;;27.45;24.48;;;7.10;78.60;;;;;;5048075;28;20024;-73
2021/01/15 11:58:16;;;;;;;26.30;23.58;;;7.20;78.70;;;;;;5049276;28;20037;-74
2021/01/15 12:00:43;;;;;;;25.92;23.20;;;7.20;78.70;;;;;;5063520;28;20063;-74
2021/01/15 12:03:09;;;;;;;26.30;23.45;;;7.20;78.70;;;;;;5063105;28;20031;-74
2021/01/15 12:05:42;;;;;;;24.92;22.13;;;7.20;78.60;;;;;;5063706;28;20051;-74
2021/01/15 12:08:08;;;;;;;26.00;23.25;;;7.20;78.50;;;;;;5063684;28;20028;-73
2021/01/15 12:10:35;;;;;;;25.85;21.70;;;7.30;78.70;;;;;;5046863;28;20445;-74
2021/01/15 12:13:01;;;;;;;25.42;21.50;;;7.30;78.60;;;;;;5065812;28;20070;-73
2021/01/15 12:15:27;;;;;;;24.73;22.10;;;7.30;78.50;;;;;;5047429;28;20020;-73
2021/01/15 12:17:53;;;;;;;24.40;19.92;;;7.30;78.50;;;;;;5063822;28;20044;-73
2021/01/15 12:20:19;;;;;;;23.38;21.02;;;7.40;78.60;;;;;;5064125;28;20046;-73
2021/01/15 12:22:48;;;;;;;23.92;21.20;;;7.40;78.50;;;;;;5066133;28;20036;-73
2021/01/15 12:25:14;;;;;;;23.95;21.50;;;7.40;78.50;;;;;;5065388;28;20174;-73
2021/01/15 12:27:40;;;;;;;21.67;19.45;;;7.40;78.40;;;;;;5064214;28;20052;-74
2021/01/15 12:30:08;;;;;;;23.95;18.80;;;7.50;78.50;;;;;;5047104;28;20029;-74
2021/01/15 12:32:34;;;;;;;23.83;20.33;;;7.60;78.60;;;;;;5044801;28;20029;-74
2021/01/15 12:35:00;;;;;;;26.08;21.77;;;7.60;78.50;;;;;;5042963;28;20025;-73
2021/01/15 12:37:27;;;;;;;24.80;22.15;;;7.60;78.50;;;;;;5043052;28;20035;-73
2021/01/15 12:39:54;;;;;;;23.98;21.48;;;7.70;78.70;;;;;;5027083;28;20064;-73
2021/01/15 12:42:20;;;;;;;24.45;21.13;;;7.80;78.90;;;;;;5043667;28;20029;-74
2021/01/15 12:44:46;;;;;;;24.52;19.67;;;7.80;78.70;;;;;;5043314;28;20140;-73
2021/01/15 12:47:13;;;;;;;23.30;20.90;;;7.90;78.80;;;;;;5043279;28;20092;-73
2021/01/15 12:49:39;;;;;;;24.05;19.70;;;7.90;78.60;;;;;;5044846;28;20128;-72
2021/01/15 12:52:05;;;;;;;21.70;18.60;;;8.00;78.70;;;;;;5026765;28;20119;-72
2021/01/15 12:54:31;;;;;;;22.02;19.60;;;8.00;78.50;;;;;;5049029;28;20147;-73